ADDS METAR Data INFO
IDs: Format: Raw Decoded Include TAF

Data at: 0854 UTC 19 Jun 2018

KBIV 190829Z AUTO 06004KT 10SM FEW007 OVC044 21/19 A2999 RMK AO2 RAE00 P0000 T02110194
KBIV 190753Z AUTO 07004KT 8SM -RA FEW021 OVC046 21/19 A2999 RMK AO2 RAB0657E10B48 SLP150 P0000 T02110194
KBIV 190653Z AUTO 04004KT 10SM FEW011 OVC046 22/19 A2999 RMK AO2 SLP150 T02170194
KBIV 190613Z AUTO 06008KT 10SM FEW009 BKN046 OVC050 22/20 A2999 RMK AO2 T02220200
KBIV 190553Z AUTO 04004KT 10SM BKN009 OVC046 22/21 A3000 RMK AO2 CIG 006V012 SLP152 60011 T02220206 10228 20222 53006
KBIV 190453Z AUTO 01006KT 10SM OVC007 23/21 A2999 RMK AO2 CIG 004V010 SLP148 T02280211 403170222
KBIV 190441Z AUTO VRB05KT 10SM OVC005 22/21 A2998 RMK AO2 CIG 003V009 T02220211
KBIV 190353Z AUTO 35005KT 7SM BKN003 22/21 A2997 RMK AO2 SLP143 T02220211
KBIV 190253Z AUTO 31004KT 8SM OVC003 22/21 A2998 RMK AO2 SLP147 60011 T02220211 53016
KBIV 190231Z AUTO 31004KT 10SM BKN004 OVC090 22/21 A2997 RMK AO2 T02220211
KBIV 190211Z AUTO 32003KT 10SM SCT004 OVC090 23/21 A2995 RMK AO2 T02280211
KBIV 190153Z AUTO 33006KT 10SM BKN004 22/21 A2995 RMK AO2 RAE14 SLP136 P0001 T02220211
KBIV 190126Z AUTO 34004KT 10SM FEW004 SCT048 22/21 A2994 RMK AO2 RAE14 P0001 T02220211
KBIV 190103Z AUTO 33006KT 10SM -RA SCT003 BKN014 OVC085 23/21 A2993 RMK AO2 P0001 T02280211
KBIV 190053Z AUTO 34005KT 9SM -RA SCT003 BKN016 OVC100 23/22 A2993 RMK AO2 SLP131 P0010 T02280217
KBIV 190042Z AUTO 32006KT 6SM -RA BR SCT003 BKN090 OVC110 23/22 A2993 RMK AO2 P0010 T02280217
KBIV 182353Z AUTO 29007KT 6SM RA BR FEW032 BKN110 23/21 A2993 RMK AO2 SLP131 P0018 60026 T02280211 10317 20228 53012
KBIV 182334Z AUTO 30010G17KT 6SM -RA BR FEW007 SCT025 BKN037 23/22 A2994 RMK AO2 P0014 T02330217
KBIV 182253Z AUTO 07003KT 5SM RA BR BKN095 OVC110 24/22 A2990 RMK AO2 LTG DSNT SW AND W RAB2158 PRESFR SLP120 P0008 T02440222
KBIV 182153Z AUTO 30008KT 10SM FEW075 FEW100 SCT120 28/22 A2991 RMK AO2 LTG DSNT W SLP122 T02780217
KBIV 182053Z AUTO 26008KT 10SM CLR 31/23 A2990 RMK AO2 SLP118 T03060228 58016
KBIV 181953Z AUTO 27009KT 10SM CLR 31/23 A2992 RMK AO2 SLP125 T03060228
KBIV 181853Z AUTO 27013G19KT 10SM CLR 32/23 A2994 RMK AO2 SLP131 T03170228
KBIV 181753Z AUTO 24014G20KT 10SM CLR 31/23 A2995 RMK AO2 SLP134 T03060228 10306 20244 57007
KBIV 181653Z AUTO 25017KT 10SM CLR 29/22 A2995 RMK AO2 SLP135 T02940222
KBIV 181553Z AUTO 25015KT 10SM CLR 28/22 A2996 RMK AO2 SLP140 T02830222
KBIV 181453Z AUTO 25014KT 10SM FEW055 SCT070 27/22 A2997 RMK AO2 SLP141 T02720217 53002
KBIV 181353Z AUTO 25012G22KT 10SM CLR 27/22 A2996 RMK AO2 SLP141 T02670217
KBIV 181253Z AUTO 24010KT 10SM SCT055 25/21 A2996 RMK AO2 SLP139 T02500211
KBIV 181153Z AUTO 27008KT 9SM CLR 24/21 A2996 RMK AO2 SLP139 T02440211 10278 20239 53008
KBIV 181053Z AUTO 31009KT 260V330 10SM CLR 26/22 A2995 RMK AO2 SLP137 T02610217
KBIV 180953Z AUTO 23014G21KT 10SM CLR 27/22 A2993 RMK AO2 SLP130 T02670217
KBIV 180853Z AUTO 23016G23KT 10SM CLR 27/22 A2993 RMK AO2 SLP130 T02720217 56009
KBIV 180753Z AUTO 23013KT 10SM CLR 27/21 A2994 RMK AO2 SLP132 T02720211
KBIV 180653Z AUTO 23014KT 10SM CLR 28/21 A2995 RMK AO2 SLP135 T02780206
KBIV 180553Z AUTO 22010KT 10SM CLR 27/20 A2996 RMK AO2 SLP139 T02720200 10311 20272 58002
KBIV 180453Z AUTO 23010KT 10SM CLR 28/20 A2997 RMK AO2 SLP141 T02830200 403330211
KBIV 180353Z AUTO 24013KT 10SM CLR 28/21 A2997 RMK AO2 SLP143 T02780206
KBIV 180253Z AUTO 24013KT 10SM CLR 28/21 A2997 RMK AO2 SLP142 T02830206 53012
KBIV 180153Z AUTO 24011KT 10SM CLR 28/20 A2996 RMK AO2 SLP138 T02830200
KBIV 180053Z AUTO 22009KT 10SM CLR 31/21 A2994 RMK AO2 SLP132 T03060206
KBIV 172353Z AUTO 21010KT 10SM CLR 31/21 A2993 RMK AO2 SLP130 T03110211 10333 20311 58016
KBIV 172253Z AUTO 22010KT 10SM CLR 32/21 A2995 RMK AO2 SLP135 T03170211
KBIV 172153Z AUTO 23009KT 10SM CLR 33/22 A2997 RMK AO2 SLP141 T03280217